Time;durP1;ratioP1;P1;durP2;ratioP2;P2;SDS_P1;SDS_P2;PMS_P1;PMS_P2;Temp;Humidity;BMP_temperature;BMP_pressure;BME280_temperature;BME280_humidity;BME280_pressure;Samples;Min_cycle;Max_cycle;Signal;HPM_P1;HPM_P2
2023/07/09 00:01:41;;;;;;;;;;;;;;;30.02;25.54;98593.34;5075038;28;19966;-88
2023/07/09 00:04:10;;;;;;;;;;;;;;;29.94;25.57;98589.22;5097422;28;19917;-89
2023/07/09 00:06:37;;;;;;;;;;;;;;;30.27;25.22;98589.59;5090636;28;20376;-89
2023/07/09 00:09:04;;;;;;;;;;;;;;;30.35;25.24;98591.69;5092328;28;20307;-88
2023/07/09 00:11:30;;;;;;;;;;;;;;;30.43;25.11;98586.53;5097251;28;20368;-88
2023/07/09 00:13:56;;;;;;;;;;;;;;;30.38;25.39;98592.81;5096078;28;19943;-88
2023/07/09 00:16:24;;;;;;;;;;;;;;;30.24;25.64;98587.66;5090729;28;20380;-88
2023/07/09 00:18:50;;;;;;;;;;;;;;;30.19;25.64;98593.94;5085754;28;19927;-87
2023/07/09 00:21:20;;;;;;;;;;;;;;;30.20;25.13;98592.69;5089181;28;19920;-88
2023/07/09 00:23:48;;;;;;;;;;;;;;;30.14;25.04;98591.69;5077980;28;19920;-88
2023/07/09 00:26:15;;;;;;;;;;;;;;;30.22;24.91;98593.81;5094993;28;20398;-88
2023/07/09 00:28:42;;;;;;;;;;;;;;;30.38;25.11;98599.28;5095797;28;20465;-88
2023/07/09 00:31:13;;;;;;;;;;;;;;;30.36;24.95;98598.94;5096430;28;19947;-88
2023/07/09 00:33:39;;;;;;;;;;;;;;;30.42;25.23;98597.06;5077351;28;19920;-88
2023/07/09 00:36:10;;;;;;;;;;;;;;;30.10;25.08;98589.00;5095034;28;19931;-88
2023/07/09 00:38:38;;;;;;;;;;;;;;;29.96;25.02;98590.34;5094261;28;19932;-88
2023/07/09 00:41:05;;;;;;;;;;;;;;;30.05;25.52;98590.41;5096443;28;19922;-88
2023/07/09 00:43:36;;;;;;;;;;;;;;;30.23;24.79;98589.72;5096237;28;20275;-89
2023/07/09 00:46:20;;;;;;;;;;;;;;;29.97;25.30;98591.13;5096019;28;19923;-88
2023/07/09 00:48:51;;;;;;;;;;;;;;;29.77;25.63;98597.13;5096308;28;20391;-89
2023/07/09 00:51:20;;;;;;;;;;;;;;;29.62;25.59;98590.38;5090714;28;19920;-89
2023/07/09 00:53:49;;;;;;;;;;;;;;;29.65;25.33;98588.66;5095543;28;19923;-88
2023/07/09 00:56:26;;;;;;;;;;;;;;;29.79;25.49;98588.16;5089537;28;19917;-88
2023/07/09 00:58:54;;;;;;;;;;;;;;;29.99;25.27;98580.91;5076003;28;20403;-88
2023/07/09 01:01:20;;;;;;;;;;;;;;;30.02;24.91;98587.69;5096535;28;20029;-88
2023/07/09 01:03:51;;;;;;;;;;;;;;;29.89;25.33;98582.13;5092694;28;19927;-89
2023/07/09 01:06:20;;;;;;;;;;;;;;;30.06;25.45;98585.50;5078709;28;19970;-89
2023/07/09 01:08:53;;;;;;;;;;;;;;;30.11;24.88;98576.41;5094754;28;20032;-88
2023/07/09 01:11:21;;;;;;;;;;;;;;;30.08;24.95;98580.19;5088918;28;20651;-89
2023/07/09 01:13:48;;;;;;;;;;;;;;;30.24;24.69;98582.00;5086858;28;19925;-88
2023/07/09 01:16:15;;;;;;;;;;;;;;;30.25;24.80;98572.22;5081360;28;19958;-88
2023/07/09 01:18:41;;;;;;;;;;;;;;;30.13;24.77;98582.41;5089160;28;19947;-89
2023/07/09 01:21:09;;;;;;;;;;;;;;;30.14;25.07;98567.00;5080739;28;20376;-89
2023/07/09 01:23:35;;;;;;;;;;;;;;;30.07;24.76;98579.41;5085954;28;19926;-89
2023/07/09 01:26:01;;;;;;;;;;;;;;;30.08;24.41;98575.28;5083237;28;19920;-88
2023/07/09 01:28:27;;;;;;;;;;;;;;;29.97;24.37;98577.75;5072351;28;19920;-88
2023/07/09 01:30:53;;;;;;;;;;;;;;;29.74;24.82;98571.75;5081776;28;19943;-88
2023/07/09 01:33:21;;;;;;;;;;;;;;;29.58;25.05;98571.94;5081568;28;20296;-88
2023/07/09 01:35:47;;;;;;;;;;;;;;;29.91;24.90;98573.16;5089030;28;19974;-88
2023/07/09 01:38:13;;;;;;;;;;;;;;;29.99;24.73;98569.59;5073444;28;19920;-88
2023/07/09 01:40:39;;;;;;;;;;;;;;;29.83;24.73;98571.84;5086677;28;19974;-88
2023/07/09 01:43:06;;;;;;;;;;;;;;;29.58;25.16;98571.94;5081046;28;19923;-89
2023/07/09 01:45:33;;;;;;;;;;;;;;;29.56;25.46;98565.97;5081982;28;19994;-89
2023/07/09 01:47:59;;;;;;;;;;;;;;;29.54;25.32;98565.63;5088645;28;19955;-89
2023/07/09 01:50:26;;;;;;;;;;;;;;;29.73;25.26;98567.34;5087556;28;20031;-88
2023/07/09 01:52:53;;;;;;;;;;;;;;;29.91;25.03;98561.84;5071610;28;20392;-88
2023/07/09 01:55:19;;;;;;;;;;;;;;;29.98;24.72;98565.19;5080520;28;19920;-88
2023/07/09 01:57:45;;;;;;;;;;;;;;;30.02;24.51;98574.31;5080255;28;20300;-88
2023/07/09 02:00:13;;;;;;;;;;;;;;;29.83;24.78;98572.63;5087365;28;19978;-88
2023/07/09 02:02:43;;;;;;;;;;;;;;;29.96;24.93;98566.91;5092467;28;19920;-88
2023/07/09 02:05:10;;;;;;;;;;;;;;;29.86;24.90;98565.25;5081892;28;20011;-88
2023/07/09 02:07:36;;;;;;;;;;;;;;;29.67;24.93;98572.81;5078608;28;19920;-88
2023/07/09 02:10:03;;;;;;;;;;;;;;;29.61;25.02;98571.03;5075185;28;19924;-87
2023/07/09 02:12:29;;;;;;;;;;;;;;;29.63;24.78;98574.19;5071072;28;19923;-88
2023/07/09 02:14:55;;;;;;;;;;;;;;;29.62;24.71;98579.06;5087071;28;20367;-88
2023/07/09 02:17:21;;;;;;;;;;;;;;;29.65;24.94;98577.34;5078650;28;19958;-88
2023/07/09 02:19:47;;;;;;;;;;;;;;;29.22;25.28;98580.94;5090060;28;20122;-88
2023/07/09 02:22:13;;;;;;;;;;;;;;;29.01;25.58;98585.22;5081179;28;20153;-88
2023/07/09 02:24:39;;;;;;;;;;;;;;;29.02;25.69;98597.34;5083083;28;20455;-87
2023/07/09 02:27:07;;;;;;;;;;;;;;;29.09;25.53;98600.72;5081399;28;19924;-88
2023/07/09 02:29:33;;;;;;;;;;;;;;;29.26;25.60;98602.19;5080069;28;19928;-89
2023/07/09 02:32:00;;;;;;;;;;;;;;;29.45;25.06;98596.69;5081751;28;19924;-89
2023/07/09 02:34:27;;;;;;;;;;;;;;;29.49;25.21;98600.97;5088214;28;20344;-88
2023/07/09 02:36:54;;;;;;;;;;;;;;;29.19;25.39;98608.09;5092451;28;20026;-88
2023/07/09 02:39:21;;;;;;;;;;;;;;;29.45;24.86;98597.47;5082665;28;20084;-88
2023/07/09 02:41:47;;;;;;;;;;;;;;;29.40;25.23;98595.22;5080897;28;20292;-88
2023/07/09 02:44:13;;;;;;;;;;;;;;;29.20;25.36;98614.50;5071042;28;20034;-88
2023/07/09 02:46:39;;;;;;;;;;;;;;;29.29;25.68;98606.13;5071359;28;19920;-88
2023/07/09 02:49:06;;;;;;;;;;;;;;;29.25;25.37;98606.25;5080519;28;19924;-88
2023/07/09 02:51:32;;;;;;;;;;;;;;;29.41;25.41;98608.91;5076470;28;19921;-88
2023/07/09 02:54:00;;;;;;;;;;;;;;;29.38;25.43;98612.66;5081085;28;21749;-88
2023/07/09 02:56:26;;;;;;;;;;;;;;;29.35;25.48;98616.41;5079358;28;19962;-88
2023/07/09 02:58:52;;;;;;;;;;;;;;;29.37;25.31;98615.94;5093761;28;19927;-89
2023/07/09 03:01:24;;;;;;;;;;;;;;;29.51;25.15;98614.66;5094000;28;19916;-88
2023/07/09 03:03:52;;;;;;;;;;;;;;;29.55;25.40;98618.94;5075463;28;19923;-89
2023/07/09 03:06:19;;;;;;;;;;;;;;;29.72;24.83;98619.53;5086262;28;19959;-88
2023/07/09 03:08:45;;;;;;;;;;;;;;;29.75;24.96;98624.28;5090178;28;19943;-88
2023/07/09 03:11:12;;;;;;;;;;;;;;;29.86;24.80;98625.50;5073500;28;20372;-88
2023/07/09 03:13:39;;;;;;;;;;;;;;;29.86;24.75;98627.53;5085266;28;19920;-89
2023/07/09 03:16:05;;;;;;;;;;;;;;;29.71;25.05;98627.22;5078611;28;19928;-88
2023/07/09 03:18:31;;;;;;;;;;;;;;;29.74;25.05;98619.88;5081157;28;19946;-88
2023/07/09 03:20:58;;;;;;;;;;;;;;;30.03;24.77;98623.28;5074749;28;19924;-88
2023/07/09 03:23:24;;;;;;;;;;;;;;;30.02;24.86;98625.31;5086015;28;20011;-88
2023/07/09 03:25:50;;;;;;;;;;;;;;;29.93;24.88;98624.44;5085929;28;19921;-88
2023/07/09 03:28:16;;;;;;;;;;;;;;;29.89;24.73;98633.09;5096958;28;19920;-88
2023/07/09 03:30:43;;;;;;;;;;;;;;;30.13;24.60;98630.56;5076944;28;19935;-88
2023/07/09 03:33:09;;;;;;;;;;;;;;;30.34;24.48;98641.09;5087074;28;19926;-88
2023/07/09 03:35:36;;;;;;;;;;;;;;;30.46;24.59;98637.41;5089758;28;19971;-89
2023/07/09 03:38:02;;;;;;;;;;;;;;;30.66;24.97;98640.66;5077676;28;20007;-89
2023/07/09 03:40:28;;;;;;;;;;;;;;;31.08;24.46;98634.53;5078880;28;19920;-89
2023/07/09 03:42:54;;;;;;;;;;;;;;;31.70;24.21;98633.06;5088667;28;20434;-88
2023/07/09 03:45:20;;;;;;;;;;;;;;;31.61;24.92;98640.78;5080905;28;19921;-88
2023/07/09 03:47:46;;;;;;;;;;;;;;;31.56;24.73;98636.53;5086018;28;20352;-88
2023/07/09 03:50:12;;;;;;;;;;;;;;;31.50;25.04;98640.47;5086769;28;20011;-89
2023/07/09 03:52:38;;;;;;;;;;;;;;;31.60;24.76;98639.97;5079461;28;20011;-89
2023/07/09 03:55:04;;;;;;;;;;;;;;;31.86;25.25;98634.78;5087685;28;20016;-89
2023/07/09 03:57:31;;;;;;;;;;;;;;;32.05;24.94;98633.53;5078572;28;19920;-89
2023/07/09 03:59:57;;;;;;;;;;;;;;;32.08;24.40;98641.13;5068611;28;20376;-89
2023/07/09 04:02:23;;;;;;;;;;;;;;;32.57;24.68;98633.13;5076535;28;20350;-89
2023/07/09 04:04:49;;;;;;;;;;;;;;;32.66;23.90;98638.78;5079090;28;19924;-89
2023/07/09 04:07:15;;;;;;;;;;;;;;;32.77;24.18;98637.47;5079226;28;19923;-89
2023/07/09 04:09:41;;;;;;;;;;;;;;;32.82;24.23;98636.81;5076468;28;19959;-88
2023/07/09 04:12:08;;;;;;;;;;;;;;;32.69;24.04;98646.38;5081856;28;19946;-88
2023/07/09 04:14:35;;;;;;;;;;;;;;;32.50;24.36;98629.84;5084606;28;19920;-89
2023/07/09 04:17:01;;;;;;;;;;;;;;;32.78;23.73;98645.53;5080914;28;19924;-89
2023/07/09 04:19:27;;;;;;;;;;;;;;;32.97;23.92;98641.34;5081532;28;19974;-89
2023/07/09 04:21:53;;;;;;;;;;;;;;;33.25;23.78;98642.78;5071561;28;19978;-89
2023/07/09 04:24:20;;;;;;;;;;;;;;;33.40;24.12;98646.47;5073882;28;19928;-89
2023/07/09 04:26:46;;;;;;;;;;;;;;;33.56;23.93;98639.56;5079825;28;19934;-89
2023/07/09 04:29:13;;;;;;;;;;;;;;;33.67;24.22;98645.53;5085504;28;19928;-88
2023/07/09 04:31:40;;;;;;;;;;;;;;;33.53;24.49;98642.63;5081132;28;20411;-89
2023/07/09 04:34:06;;;;;;;;;;;;;;;33.70;24.33;98643.78;5083561;28;19924;-89
2023/07/09 04:36:32;;;;;;;;;;;;;;;33.94;24.20;98653.84;5080274;28;19924;-89
2023/07/09 04:38:58;;;;;;;;;;;;;;;34.15;23.84;98646.22;5076237;28;19921;-89
2023/07/09 04:41:24;;;;;;;;;;;;;;;34.33;23.10;98645.28;5075428;28;19924;-89
2023/07/09 04:43:50;;;;;;;;;;;;;;;34.48;24.30;98640.34;5088420;28;19920;-89
2023/07/09 04:46:16;;;;;;;;;;;;;;;34.60;23.85;98642.91;5084979;28;19959;-89
2023/07/09 04:48:42;;;;;;;;;;;;;;;35.01;23.90;98640.97;5086258;28;19963;-89
2023/07/09 04:51:08;;;;;;;;;;;;;;;35.42;23.04;98642.66;5090312;28;19960;-89
2023/07/09 04:53:34;;;;;;;;;;;;;;;35.69;22.26;98641.44;5090527;28;19963;-87
2023/07/09 04:56:02;;;;;;;;;;;;;;;35.96;22.29;98640.22;5076456;28;19946;-87
2023/07/09 04:58:29;;;;;;;;;;;;;;;35.84;22.88;98639.28;5065397;28;19935;-87
2023/07/09 05:00:58;;;;;;;;;;;;;;;35.54;23.33;98637.88;5063646;28;19932;-88
2023/07/09 05:03:24;;;;;;;;;;;;;;;35.26;23.61;98636.69;5065044;28;19927;-91
2023/07/09 05:05:50;;;;;;;;;;;;;;;35.04;24.41;98633.50;5075458;28;19946;-90
2023/07/09 05:08:16;;;;;;;;;;;;;;;34.87;24.07;98635.31;5068034;28;19928;-90
2023/07/09 05:10:43;;;;;;;;;;;;;;;34.88;23.55;98634.00;5078934;28;19924;-90
2023/07/09 05:13:09;;;;;;;;;;;;;;;35.13;22.95;98639.88;5076146;28;21206;-89
2023/07/09 05:15:35;;;;;;;;;;;;;;;35.36;22.55;98640.97;5072387;28;20339;-89
2023/07/09 05:18:01;;;;;;;;;;;;;;;35.61;22.51;98633.81;5074718;28;19969;-87
2023/07/09 05:20:27;;;;;;;;;;;;;;;35.69;21.81;98649.22;5075447;28;19921;-85
2023/07/09 05:22:53;;;;;;;;;;;;;;;35.78;22.17;98640.53;5069449;28;20276;-87
2023/07/09 05:25:19;;;;;;;;;;;;;;;35.84;21.52;98639.28;5065689;28;19921;-88
2023/07/09 05:27:45;;;;;;;;;;;;;;;35.85;22.29;98638.00;5075614;28;19923;-88
2023/07/09 05:30:11;;;;;;;;;;;;;;;35.95;21.88;98645.13;5073676;28;19926;-88
2023/07/09 05:32:37;;;;;;;;;;;;;;;35.98;21.70;98644.16;5073530;28;19931;-88
2023/07/09 05:35:03;;;;;;;;;;;;;;;35.98;22.33;98638.44;5073537;28;19912;-90
2023/07/09 05:37:29;;;;;;;;;;;;;;;36.01;22.05;98639.53;5072408;28;19925;-84
2023/07/09 05:39:55;;;;;;;;;;;;;;;36.10;22.16;98645.06;5071261;28;19924;-87
2023/07/09 05:42:22;;;;;;;;;;;;;;;36.24;22.65;98649.13;5072964;28;19917;-87
2023/07/09 05:44:48;;;;;;;;;;;;;;;36.31;23.07;98642.94;5072835;28;20369;-88
2023/07/09 05:47:14;;;;;;;;;;;;;;;36.51;22.63;98637.16;5073055;28;19927;-87
2023/07/09 05:49:40;;;;;;;;;;;;;;;36.73;23.01;98634.50;5072031;28;19916;-87
2023/07/09 05:52:06;;;;;;;;;;;;;;;36.83;22.48;98640.81;5070539;28;19963;-87
2023/07/09 05:54:35;;;;;;;;;;;;;;;36.80;23.45;98641.84;5071956;28;20028;-90
2023/07/09 05:57:01;;;;;;;;;;;;;;;36.87;22.70;98639.28;5073816;28;19916;-87
2023/07/09 05:59:27;;;;;;;;;;;;;;;36.86;22.65;98646.31;5070976;28;19931;-87
2023/07/09 06:01:53;;;;;;;;;;;;;;;36.95;23.14;98643.28;5073284;28;20375;-87
2023/07/09 06:04:19;;;;;;;;;;;;;;;37.22;22.46;98648.41;5073436;28;19917;-87
2023/07/09 06:06:45;;;;;;;;;;;;;;;37.10;19.57;98640.25;5072872;28;19929;-87
2023/07/09 06:09:11;;;;;;;;;;;;;;;37.48;19.61;98647.53;5073407;28;19917;-88
2023/07/09 06:11:37;;;;;;;;;;;;;;;37.67;19.41;98657.28;5069149;28;19936;-88
2023/07/09 06:14:03;;;;;;;;;;;;;;;37.77;19.53;98645.06;5066799;28;19951;-88
2023/07/09 06:16:29;;;;;;;;;;;;;;;38.03;18.50;98644.91;5087196;28;19917;-87
2023/07/09 06:18:55;;;;;;;;;;;;;;;38.43;17.47;98650.25;5073201;28;19917;-88
2023/07/09 06:21:21;;;;;;;;;;;;;;;38.44;17.49;98648.16;5058116;28;19928;-88
2023/07/09 06:23:47;;;;;;;;;;;;;;;38.35;17.63;98646.31;5072894;28;20312;-88
2023/07/09 06:26:13;;;;;;;;;;;;;;;37.88;17.53;98652.97;5073070;28;19920;-87
2023/07/09 06:28:39;;;;;;;;;;;;;;;38.11;19.19;98657.47;5058014;28;19924;-88
2023/07/09 06:31:05;;;;;;;;;;;;;;;38.65;18.67;98652.34;5070188;28;19928;-88
2023/07/09 06:33:31;;;;;;;;;;;;;;;39.14;19.31;98645.78;5072587;28;19916;-88
2023/07/09 06:35:58;;;;;;;;;;;;;;;39.27;18.31;98651.03;5072317;28;19958;-89
2023/07/09 06:38:25;;;;;;;;;;;;;;;39.21;17.59;98650.28;5070545;28;19921;-87
2023/07/09 06:40:51;;;;;;;;;;;;;;;39.46;18.37;98649.16;5072549;28;20285;-89
2023/07/09 06:43:17;;;;;;;;;;;;;;;39.73;19.31;98650.38;5072411;28;19912;-88
2023/07/09 06:45:54;;;;;;;;;;;;;;;39.84;18.14;98647.47;5072500;28;19921;-88
2023/07/09 06:48:21;;;;;;;;;;;;;;;39.97;18.36;98647.66;5071129;28;19920;-89
2023/07/09 06:50:47;;;;;;;;;;;;;;;40.04;18.20;98655.75;5063380;28;20017;-88
2023/07/09 06:53:14;;;;;;;;;;;;;;;40.03;16.96;98646.34;5063752;28;19928;-88
2023/07/09 06:55:40;;;;;;;;;;;;;;;39.56;18.47;98641.03;5069228;28;20339;-88
2023/07/09 06:58:06;;;;;;;;;;;;;;;39.39;18.90;98646.81;5071686;28;19962;-88
2023/07/09 07:00:33;;;;;;;;;;;;;;;39.54;18.53;98650.16;5072222;28;20023;-88
2023/07/09 07:02:59;;;;;;;;;;;;;;;39.69;19.33;98644.91;5069653;28;19999;-88
2023/07/09 07:05:26;;;;;;;;;;;;;;;39.92;18.92;98640.63;5068426;28;20014;-88
2023/07/09 07:07:53;;;;;;;;;;;;;;;39.92;19.07;98643.50;5075768;28;19939;-88
2023/07/09 07:10:19;;;;;;;;;;;;;;;39.81;18.76;98631.28;5062830;28;19928;-85
2023/07/09 07:12:46;;;;;;;;;;;;;;;39.60;19.15;98644.44;5068316;28;20392;-86
2023/07/09 07:15:14;;;;;;;;;;;;;;;39.26;18.27;98635.88;5072760;28;19951;-85
2023/07/09 07:17:40;;;;;;;;;;;;;;;39.20;19.05;98637.19;5072793;28;19921;-87
2023/07/09 07:20:07;;;;;;;;;;;;;;;39.03;19.56;98645.81;5072769;28;19928;-86
2023/07/09 07:22:33;;;;;;;;;;;;;;;38.60;19.30;98648.16;5071812;28;19962;-85
2023/07/09 07:24:59;;;;;;;;;;;;;;;38.58;18.81;98655.75;5073059;28;19920;-85
2023/07/09 07:27:25;;;;;;;;;;;;;;;38.23;19.80;98650.44;5071798;28;19932;-82
2023/07/09 07:29:52;;;;;;;;;;;;;;;37.78;19.13;98648.72;5061466;28;19931;-85
2023/07/09 07:32:18;;;;;;;;;;;;;;;37.30;19.77;98652.34;5077290;28;20334;-87
2023/07/09 07:34:44;;;;;;;;;;;;;;;37.87;19.73;98648.53;5072422;28;19947;-83
2023/07/09 07:37:10;;;;;;;;;;;;;;;38.15;19.96;98648.59;5071983;28;19916;-87
2023/07/09 07:39:36;;;;;;;;;;;;;;;38.26;19.79;98655.13;5073724;28;19916;-87
2023/07/09 07:42:02;;;;;;;;;;;;;;;38.48;19.59;98658.09;5072378;28;20384;-87
2023/07/09 07:44:28;;;;;;;;;;;;;;;38.49;19.00;98651.03;5063097;28;20015;-87
2023/07/09 07:46:54;;;;;;;;;;;;;;;37.42;19.04;98652.44;5071358;28;20360;-86
2023/07/09 07:49:20;;;;;;;;;;;;;;;37.17;20.25;98646.31;5091856;28;20014;-87
2023/07/09 07:51:47;;;;;;;;;;;;;;;37.66;20.51;98647.88;5093155;28;19927;-85
2023/07/09 07:54:13;;;;;;;;;;;;;;;38.09;19.48;98645.69;5092334;28;20311;-86
2023/07/09 07:56:39;;;;;;;;;;;;;;;38.29;18.93;98641.88;5092293;28;19920;-86
2023/07/09 07:59:05;;;;;;;;;;;;;;;38.31;19.78;98647.88;5074316;28;19988;-87
2023/07/09 08:01:31;;;;;;;;;;;;;;;38.74;19.27;98649.25;5087667;28;20451;-86
2023/07/09 08:03:57;;;;;;;;;;;;;;;38.30;19.61;98649.19;5092749;28;20364;-85
2023/07/09 08:06:23;;;;;;;;;;;;;;;38.09;19.61;98642.84;5093248;28;20294;-84
2023/07/09 08:08:49;;;;;;;;;;;;;;;38.02;19.41;98641.25;5094240;28;19994;-84
2023/07/09 08:11:15;;;;;;;;;;;;;;;38.45;19.22;98635.38;5096646;28;19948;-85
2023/07/09 08:13:41;;;;;;;;;;;;;;;38.16;18.15;98635.84;5096577;28;20379;-85
2023/07/09 08:16:07;;;;;;;;;;;;;;;37.90;18.72;98636.03;5096921;28;19923;-89
2023/07/09 08:18:34;;;;;;;;;;;;;;;38.15;20.10;98640.78;5096733;28;19920;-87
2023/07/09 08:21:00;;;;;;;;;;;;;;;38.08;19.22;98641.28;5096802;28;19920;-88
2023/07/09 08:23:26;;;;;;;;;;;;;;;38.44;19.38;98637.44;5096863;28;19916;-87
2023/07/09 08:25:55;;;;;;;;;;;;;;;37.60;19.70;98634.84;5097091;28;19916;-86
2023/07/09 08:28:22;;;;;;;;;;;;;;;38.07;19.75;98636.84;5087509;28;19942;-84
2023/07/09 08:30:48;;;;;;;;;;;;;;;37.91;19.19;98632.63;5095823;28;19924;-88
2023/07/09 08:33:14;;;;;;;;;;;;;;;38.16;19.73;98632.97;5077364;28;19931;-87
2023/07/09 08:35:42;;;;;;;;;;;;;;;38.77;18.89;98633.81;5096582;28;19916;-89
2023/07/09 08:38:08;;;;;;;;;;;;;;;38.57;18.18;98634.88;5092805;28;20050;-87
2023/07/09 08:40:38;;;;;;;;;;;;;;;37.76;19.43;98623.41;5087206;28;19930;-90
2023/07/09 08:43:14;;;;;;;;;;;;;;;37.43;19.89;98628.25;5095049;28;20394;-89
2023/07/09 08:45:50;;;;;;;;;;;;;;;38.01;19.85;98627.44;5092958;28;20410;-87
2023/07/09 08:48:25;;;;;;;;;;;;;;;38.41;19.15;98629.91;5084946;28;19920;-84
2023/07/09 08:50:54;;;;;;;;;;;;;;;38.83;18.62;98628.09;5094198;28;20014;-87
2023/07/09 08:53:32;;;;;;;;;;;;;;;38.84;18.52;98630.44;5094657;28;20458;-86
2023/07/09 08:55:58;;;;;;;;;;;;;;;37.89;19.35;98623.75;5080630;28;19927;-87
2023/07/09 08:58:29;;;;;;;;;;;;;;;37.88;19.14;98635.75;5084813;28;19926;-85
2023/07/09 09:00:56;;;;;;;;;;;;;;;37.93;19.32;98632.88;5081156;28;19924;-88
2023/07/09 09:03:22;;;;;;;;;;;;;;;37.45;19.66;98635.03;5093533;28;20368;-83
2023/07/09 09:05:49;;;;;;;;;;;;;;;37.24;19.93;98625.78;5074597;28;19923;-90
2023/07/09 09:08:27;;;;;;;;;;;;;;;38.16;17.71;98630.84;5092585;28;19916;-87
2023/07/09 09:10:57;;;;;;;;;;;;;;;37.68;17.85;98630.16;5076906;28;20383;-87
2023/07/09 09:13:25;;;;;;;;;;;;;;;37.48;18.38;98621.75;5074877;28;19924;-87
2023/07/09 09:15:51;;;;;;;;;;;;;;;37.59;18.95;98625.44;5093239;28;19927;-88
2023/07/09 09:18:28;;;;;;;;;;;;;;;37.71;17.75;98629.16;5067759;28;19977;-90
2023/07/09 09:21:01;;;;;;;;;;;;;;;37.95;16.98;98630.28;5090402;28;20310;-88
2023/07/09 09:23:36;;;;;;;;;;;;;;;38.54;16.50;98621.53;5089791;28;19921;-87
2023/07/09 09:26:04;;;;;;;;;;;;;;;38.83;17.58;98625.22;5085385;28;19924;-89
2023/07/09 09:28:34;;;;;;;;;;;;;;;38.70;15.54;98626.50;5073352;28;19920;-90
2023/07/09 09:31:01;;;;;;;;;;;;;;;38.95;16.73;98618.16;5084795;28;20338;-89
2023/07/09 09:33:36;;;;;;;;;;;;;;;37.74;17.12;98626.00;5076765;28;19928;-87
2023/07/09 09:36:03;;;;;;;;;;;;;;;39.14;16.52;98627.78;5082102;28;19920;-88
2023/07/09 09:38:29;;;;;;;;;;;;;;;37.60;17.01;98626.25;5079485;28;19927;-87
2023/07/09 09:41:04;;;;;;;;;;;;;;;38.08;17.79;98635.53;5089824;28;19920;-91
2023/07/09 09:43:32;;;;;;;;;;;;;;;38.21;17.35;98627.22;5080916;28;20308;-90
2023/07/09 09:46:00;;;;;;;;;;;;;;;37.61;18.42;98628.59;5074455;28;20011;-90
2023/07/09 09:48:28;;;;;;;;;;;;;;;38.66;16.88;98623.13;5075869;28;19974;-90
2023/07/09 09:50:57;;;;;;;;;;;;;;;38.98;16.30;98628.59;5076610;28;20619;-88
2023/07/09 09:53:24;;;;;;;;;;;;;;;39.02;14.44;98626.25;5081724;28;19929;-88
2023/07/09 09:55:54;;;;;;;;;;;;;;;39.36;15.61;98624.88;5078433;28;19920;-88
2023/07/09 09:58:25;;;;;;;;;;;;;;;38.90;15.26;98630.44;5063408;28;19924;-87
2023/07/09 10:00:52;;;;;;;;;;;;;;;38.75;16.77;98627.81;5074987;28;20027;-89
2023/07/09 10:03:18;;;;;;;;;;;;;;;38.91;15.70;98620.53;5078767;28;20441;-89
2023/07/09 10:05:50;;;;;;;;;;;;;;;38.80;16.27;98629.13;5074025;28;20385;-87
2023/07/09 10:08:49;;;;;;;;;;;;;;;39.10;16.71;98628.06;5083201;28;19920;-87
2023/07/09 10:11:18;;;;;;;;;;;;;;;39.50;15.11;98615.16;5060067;28;20394;-92
2023/07/09 10:13:45;;;;;;;;;;;;;;;39.94;15.06;98612.09;5081332;28;19931;-88
2023/07/09 10:16:46;;;;;;;;;;;;;;;39.87;15.40;98615.53;5074848;28;19928;-90
2023/07/09 10:19:17;;;;;;;;;;;;;;;39.15;14.91;98606.38;5065148;28;19920;-89
2023/07/09 10:21:46;;;;;;;;;;;;;;;39.44;16.02;98607.88;5077437;28;19978;-92
2023/07/09 10:24:30;;;;;;;;;;;;;;;39.68;15.38;98613.78;5083078;28;19927;-91
2023/07/09 10:27:00;;;;;;;;;;;;;;;40.38;15.25;98611.03;5081474;28;19962;-89
2023/07/09 10:29:26;;;;;;;;;;;;;;;39.99;14.79;98611.28;5085534;28;19925;-89
2023/07/09 10:31:55;;;;;;;;;;;;;;;40.29;14.58;98608.50;5076534;28;19920;-88
2023/07/09 10:34:50;;;;;;;;;;;;;;;40.89;15.63;98611.47;5073087;28;19921;-92
2023/07/09 10:37:34;;;;;;;;;;;;;;;40.50;14.23;98612.56;5070568;28;19929;-91
2023/07/09 10:40:03;;;;;;;;;;;;;;;40.96;13.95;98608.00;5077363;28;19987;-89
2023/07/09 10:42:30;;;;;;;;;;;;;;;41.05;14.37;98602.66;5075673;28;20011;-86
2023/07/09 10:45:14;;;;;;;;;;;;;;;39.95;13.98;98607.13;5080893;28;19928;-90
2023/07/09 10:47:44;;;;;;;;;;;;;;;38.93;15.30;98612.94;5080797;28;20299;-87
2023/07/09 10:50:37;;;;;;;;;;;;;;;38.88;14.85;98604.34;5081192;28;19947;-87
2023/07/09 10:53:14;;;;;;;;;;;;;;;39.03;14.86;98591.25;5078818;28;20007;-88
2023/07/09 10:55:49;;;;;;;;;;;;;;;40.34;13.55;98598.25;5072549;28;19927;-88
2023/07/09 10:58:24;;;;;;;;;;;;;;;40.39;13.90;98591.69;5073164;28;19924;-88
2023/07/09 11:00:51;;;;;;;;;;;;;;;40.31;14.40;98605.09;5072894;28;20275;-88
2023/07/09 11:03:20;;;;;;;;;;;;;;;39.82;13.04;98607.72;5075720;28;19925;-89
2023/07/09 11:05:47;;;;;;;;;;;;;;;39.99;14.83;98601.88;5085915;28;19924;-89
2023/07/09 11:08:22;;;;;;;;;;;;;;;39.35;14.86;98595.34;5082180;28;19920;-89
2023/07/09 11:10:52;;;;;;;;;;;;;;;38.98;15.30;98597.78;5091297;28;20022;-90
2023/07/09 11:13:30;;;;;;;;;;;;;;;39.93;14.76;98595.38;5079274;28;19921;-87
2023/07/09 11:15:58;;;;;;;;;;;;;;;38.47;15.52;98601.19;5080785;28;19924;-88
2023/07/09 11:18:25;;;;;;;;;;;;;;;38.76;14.98;98594.94;5083948;28;19931;-87
2023/07/09 11:21:04;;;;;;;;;;;;;;;40.17;14.10;98586.09;5086104;28;19924;-87
2023/07/09 11:23:50;;;;;;;;;;;;;;;41.48;13.76;98596.16;5084057;28;19924;-89
2023/07/09 11:26:22;;;;;;;;;;;;;;;42.12;12.92;98591.41;5090767;28;19916;-87
2023/07/09 11:28:51;;;;;;;;;;;;;;;41.58;12.03;98586.59;5091513;28;19917;-87
2023/07/09 11:31:21;;;;;;;;;;;;;;;40.75;13.05;98586.69;5091620;28;19916;-88
2023/07/09 11:34:07;;;;;;;;;;;;;;;40.76;12.71;98577.50;5082309;28;19948;-90
2023/07/09 11:36:34;;;;;;;;;;;;;;;41.15;12.85;98589.44;5080502;28;19967;-88
2023/07/09 11:39:01;;;;;;;;;;;;;;;41.39;11.88;98579.22;5080228;28;19924;-92
2023/07/09 11:41:28;;;;;;;;;;;;;;;41.82;12.28;98577.13;5086547;28;19920;-90
2023/07/09 11:44:02;;;;;;;;;;;;;;;41.13;12.87;98571.91;5090057;28;19924;-92
2023/07/09 11:46:28;;;;;;;;;;;;;;;40.54;12.81;98569.09;5085970;28;19920;-92
2023/07/09 11:48:57;;;;;;;;;;;;;;;40.44;13.22;98582.25;5094380;28;19920;-92
2023/07/09 11:51:30;;;;;;;;;;;;;;;40.25;14.08;98582.13;5085762;28;19956;-88
2023/07/09 11:53:56;;;;;;;;;;;;;;;40.24;14.93;98579.78;5087802;28;19974;-89
2023/07/09 11:56:24;;;;;;;;;;;;;;;40.67;13.66;98577.88;5083828;28;19924;-92
2023/07/09 11:58:51;;;;;;;;;;;;;;;41.19;14.70;98578.41;5093864;28;19927;-89
2023/07/09 12:01:20;;;;;;;;;;;;;;;41.24;14.10;98568.88;5081997;28;19924;-91
2023/07/09 12:03:48;;;;;;;;;;;;;;;41.47;13.51;98568.66;5082647;28;20007;-87
2023/07/09 12:06:18;;;;;;;;;;;;;;;41.04;14.25;98569.41;5077134;28;19928;-89
2023/07/09 12:08:45;;;;;;;;;;;;;;;40.52;14.57;98563.84;5085135;28;20003;-91
2023/07/09 12:11:31;;;;;;;;;;;;;;;40.92;14.60;98572.91;5095038;28;19916;-87
2023/07/09 12:14:03;;;;;;;;;;;;;;;41.01;13.71;98566.81;5072436;28;19924;-89
2023/07/09 12:16:30;;;;;;;;;;;;;;;41.52;13.71;98559.91;5094106;28;19958;-89
2023/07/09 12:18:58;;;;;;;;;;;;;;;41.96;14.05;98559.34;5089411;28;19928;-89
2023/07/09 12:21:25;;;;;;;;;;;;;;;42.06;14.62;98562.59;5086802;28;19955;-87
2023/07/09 12:23:53;;;;;;;;;;;;;;;42.22;13.83;98550.03;5079710;28;20382;-86
2023/07/09 12:26:20;;;;;;;;;;;;;;;41.44;13.13;98549.56;5081396;28;19924;-88
2023/07/09 12:28:53;;;;;;;;;;;;;;;41.73;13.12;98543.66;5090260;28;19924;-88
2023/07/09 12:31:24;;;;;;;;;;;;;;;41.59;12.86;98544.88;5088029;28;19920;-87
2023/07/09 12:33:53;;;;;;;;;;;;;;;41.10;13.36;98535.53;5082474;28;19942;-87
2023/07/09 12:36:19;;;;;;;;;;;;;;;41.31;14.57;98545.25;5074892;28;19965;-88
2023/07/09 12:38:50;;;;;;;;;;;;;;;41.47;13.63;98542.72;5081322;28;19928;-89
2023/07/09 12:41:24;;;;;;;;;;;;;;;41.04;14.01;98534.03;5089896;28;19920;-89
2023/07/09 12:43:52;;;;;;;;;;;;;;;41.27;13.62;98538.22;5083103;28;19939;-88
2023/07/09 12:46:18;;;;;;;;;;;;;;;41.52;13.42;98536.09;5077043;28;20443;-89
2023/07/09 12:48:45;;;;;;;;;;;;;;;41.98;13.65;98529.94;5078729;28;19933;-88
2023/07/09 12:51:15;;;;;;;;;;;;;;;42.06;13.32;98527.97;5088128;28;20032;-89
2023/07/09 12:53:41;;;;;;;;;;;;;;;42.27;13.11;98528.19;5081239;28;20797;-89